sensor_id;sensor_type;location;lat;lon;timestamp;temperature;humidity
37408;DHT22;24866;50.248;8.252;2023-02-26T00:00:15;-0.70;99.90
37408;DHT22;24866;50.248;8.252;2023-02-26T00:02:49;-0.60;99.90
37408;DHT22;24866;50.248;8.252;2023-02-26T00:05:19;-0.60;99.90
37408;DHT22;24866;50.248;8.252;2023-02-26T00:07:49;-0.60;99.90
37408;DHT22;24866;50.248;8.252;2023-02-26T00:10:19;-0.70;99.90
37408;DHT22;24866;50.248;8.252;2023-02-26T00:12:49;-0.50;99.90
37408;DHT22;24866;50.248;8.252;2023-02-26T00:15:20;-0.50;99.90
37408;DHT22;24866;50.248;8.252;2023-02-26T00:17:58;-0.40;99.90
37408;DHT22;24866;50.248;8.252;2023-02-26T00:20:31;-0.50;99.90
37408;DHT22;24866;50.248;8.252;2023-02-26T00:23:02;-0.90;99.90
37408;DHT22;24866;50.248;8.252;2023-02-26T00:25:32;-0.90;99.90
37408;DHT22;24866;50.248;8.252;2023-02-26T00:28:02;-1.00;99.90
37408;DHT22;24866;50.248;8.252;2023-02-26T00:30:33;-1.00;99.90
37408;DHT22;24866;50.248;8.252;2023-02-26T00:33:05;-0.90;99.90
37408;DHT22;24866;50.248;8.252;2023-02-26T00:35:35;-1.10;99.90
37408;DHT22;24866;50.248;8.252;2023-02-26T00:38:07;-1.00;99.90
37408;DHT22;24866;50.248;8.252;2023-02-26T00:40:39;-0.80;99.90
37408;DHT22;24866;50.248;8.252;2023-02-26T00:43:15;-0.60;99.90
37408;DHT22;24866;50.248;8.252;2023-02-26T00:45:52;-0.40;99.90
37408;DHT22;24866;50.248;8.252;2023-02-26T00:48:43;-0.40;99.90
37408;DHT22;24866;50.248;8.252;2023-02-26T00:51:26;-0.40;99.90
37408;DHT22;24866;50.248;8.252;2023-02-26T00:54:03;-0.40;99.90
37408;DHT22;24866;50.248;8.252;2023-02-26T00:56:36;-0.40;99.90
37408;DHT22;24866;50.248;8.252;2023-02-26T00:59:06;-0.60;99.90
37408;DHT22;24866;50.248;8.252;2023-02-26T01:01:37;-0.60;99.90
37408;DHT22;24866;50.248;8.252;2023-02-26T01:04:09;-0.50;1.00
37408;DHT22;24866;50.248;8.252;2023-02-26T01:06:42;-0.60;1.00
37408;DHT22;24866;50.248;8.252;2023-02-26T01:13:01;-0.60;1.00
37408;DHT22;24866;50.248;8.252;2023-02-26T01:15:31;-0.70;1.00
37408;DHT22;24866;50.248;8.252;2023-02-26T01:18:05;-0.60;1.00
37408;DHT22;24866;50.248;8.252;2023-02-26T01:20:45;-0.70;1.00
37408;DHT22;24866;50.248;8.252;2023-02-26T01:23:19;-0.80;1.00
37408;DHT22;24866;50.248;8.252;2023-02-26T01:25:55;-0.80;1.00
37408;DHT22;24866;50.248;8.252;2023-02-26T01:28:27;-0.70;1.00
37408;DHT22;24866;50.248;8.252;2023-02-26T01:31:00;-0.70;1.00
37408;DHT22;24866;50.248;8.252;2023-02-26T01:33:37;-0.80;1.00
37408;DHT22;24866;50.248;8.252;2023-02-26T01:36:16;-0.80;1.00
37408;DHT22;24866;50.248;8.252;2023-02-26T01:38:52;-0.70;1.00
37408;DHT22;24866;50.248;8.252;2023-02-26T01:41:29;-0.70;1.00
37408;DHT22;24866;50.248;8.252;2023-02-26T01:44:08;-0.80;1.00
37408;DHT22;24866;50.248;8.252;2023-02-26T01:46:52;-0.80;1.00
37408;DHT22;24866;50.248;8.252;2023-02-26T01:49:27;-0.80;29.30
37408;DHT22;24866;50.248;8.252;2023-02-26T01:52:00;-0.80;99.90
37408;DHT22;24866;50.248;8.252;2023-02-26T01:54:32;-0.90;99.90
37408;DHT22;24866;50.248;8.252;2023-02-26T01:57:05;-0.90;99.90
37408;DHT22;24866;50.248;8.252;2023-02-26T01:59:38;-1.00;1.00
37408;DHT22;24866;50.248;8.252;2023-02-26T02:02:12;-0.90;1.00
37408;DHT22;24866;50.248;8.252;2023-02-26T02:04:46;-1.00;70.30
37408;DHT22;24866;50.248;8.252;2023-02-26T02:07:18;-1.00;99.90
37408;DHT22;24866;50.248;8.252;2023-02-26T02:09:48;-1.10;1.00
37408;DHT22;24866;50.248;8.252;2023-02-26T02:12:25;-1.10;5.60
37408;DHT22;24866;50.248;8.252;2023-02-26T02:15:05;-1.20;1.00
37408;DHT22;24866;50.248;8.252;2023-02-26T02:17:45;-1.10;99.90
37408;DHT22;24866;50.248;8.252;2023-02-26T02:20:31;-1.10;1.00
37408;DHT22;24866;50.248;8.252;2023-02-26T02:23:11;-1.10;86.20
37408;DHT22;24866;50.248;8.252;2023-02-26T02:26:06;-1.10;99.90
37408;DHT22;24866;50.248;8.252;2023-02-26T02:28:48;-1.10;99.90
37408;DHT22;24866;50.248;8.252;2023-02-26T02:31:26;-1.10;99.90
37408;DHT22;24866;50.248;8.252;2023-02-26T02:34:00;-1.20;99.90
37408;DHT22;24866;50.248;8.252;2023-02-26T02:36:35;-1.20;99.90
37408;DHT22;24866;50.248;8.252;2023-02-26T02:39:10;-1.30;99.90
37408;DHT22;24866;50.248;8.252;2023-02-26T02:41:44;-1.20;99.90
37408;DHT22;24866;50.248;8.252;2023-02-26T02:44:18;-1.20;99.90
37408;DHT22;24866;50.248;8.252;2023-02-26T02:46:53;-1.20;99.90
37408;DHT22;24866;50.248;8.252;2023-02-26T02:49:29;-1.20;99.90
37408;DHT22;24866;50.248;8.252;2023-02-26T02:52:05;-1.10;99.90
37408;DHT22;24866;50.248;8.252;2023-02-26T02:54:47;-1.20;99.90
37408;DHT22;24866;50.248;8.252;2023-02-26T02:57:21;-1.30;99.90
37408;DHT22;24866;50.248;8.252;2023-02-26T02:59:56;-1.30;99.90
37408;DHT22;24866;50.248;8.252;2023-02-26T03:02:35;-1.30;99.90
37408;DHT22;24866;50.248;8.252;2023-02-26T03:05:07;-1.40;99.90
37408;DHT22;24866;50.248;8.252;2023-02-26T03:07:42;-1.40;99.90
37408;DHT22;24866;50.248;8.252;2023-02-26T03:10:13;-1.50;99.90
37408;DHT22;24866;50.248;8.252;2023-02-26T03:12:44;-1.50;99.90
37408;DHT22;24866;50.248;8.252;2023-02-26T03:15:14;-1.50;99.90
37408;DHT22;24866;50.248;8.252;2023-02-26T03:17:53;-1.30;99.90
37408;DHT22;24866;50.248;8.252;2023-02-26T03:20:28;-1.20;99.90
37408;DHT22;24866;50.248;8.252;2023-02-26T03:23:04;-1.20;99.90
37408;DHT22;24866;50.248;8.252;2023-02-26T03:25:44;-1.10;99.90
37408;DHT22;24866;50.248;8.252;2023-02-26T03:28:24;-1.20;99.90
37408;DHT22;24866;50.248;8.252;2023-02-26T03:31:00;-1.40;99.90
37408;DHT22;24866;50.248;8.252;2023-02-26T03:33:40;-1.50;99.90
37408;DHT22;24866;50.248;8.252;2023-02-26T03:36:19;-1.40;99.90
37408;DHT22;24866;50.248;8.252;2023-02-26T03:38:53;-1.50;99.90
37408;DHT22;24866;50.248;8.252;2023-02-26T03:41:29;-1.60;99.90
37408;DHT22;24866;50.248;8.252;2023-02-26T03:44:04;-1.40;99.90
37408;DHT22;24866;50.248;8.252;2023-02-26T03:46:44;-1.30;99.90
37408;DHT22;24866;50.248;8.252;2023-02-26T03:49:21;-1.40;99.90
37408;DHT22;24866;50.248;8.252;2023-02-26T03:51:53;-1.40;99.90
37408;DHT22;24866;50.248;8.252;2023-02-26T03:54:25;-1.20;99.90
37408;DHT22;24866;50.248;8.252;2023-02-26T03:56:57;-1.10;99.90
37408;DHT22;24866;50.248;8.252;2023-02-26T03:59:27;-1.20;99.90
37408;DHT22;24866;50.248;8.252;2023-02-26T04:02:00;-1.40;99.90
37408;DHT22;24866;50.248;8.252;2023-02-26T04:04:35;-1.30;99.90
37408;DHT22;24866;50.248;8.252;2023-02-26T04:07:11;-1.20;99.90
37408;DHT22;24866;50.248;8.252;2023-02-26T04:09:42;-1.20;99.90
37408;DHT22;24866;50.248;8.252;2023-02-26T04:12:12;-1.20;99.90
37408;DHT22;24866;50.248;8.252;2023-02-26T04:14:42;-1.30;99.90
37408;DHT22;24866;50.248;8.252;2023-02-26T04:17:12;-1.50;99.90
37408;DHT22;24866;50.248;8.252;2023-02-26T04:19:43;-1.70;99.90
37408;DHT22;24866;50.248;8.252;2023-02-26T04:22:13;-1.70;99.90
37408;DHT22;24866;50.248;8.252;2023-02-26T04:24:44;-1.90;99.90
37408;DHT22;24866;50.248;8.252;2023-02-26T04:27:14;-1.80;99.90
37408;DHT22;24866;50.248;8.252;2023-02-26T04:29:44;-1.80;99.90
37408;DHT22;24866;50.248;8.252;2023-02-26T04:32:13;-1.70;99.90
37408;DHT22;24866;50.248;8.252;2023-02-26T04:34:45;-1.70;99.90
37408;DHT22;24866;50.248;8.252;2023-02-26T04:37:15;-1.60;99.90
37408;DHT22;24866;50.248;8.252;2023-02-26T04:39:45;-1.50;99.90
37408;DHT22;24866;50.248;8.252;2023-02-26T04:42:15;-1.50;99.90
37408;DHT22;24866;50.248;8.252;2023-02-26T04:44:45;-1.60;99.90
37408;DHT22;24866;50.248;8.252;2023-02-26T04:47:15;-1.70;99.90
37408;DHT22;24866;50.248;8.252;2023-02-26T04:49:46;-1.70;99.90
37408;DHT22;24866;50.248;8.252;2023-02-26T04:52:16;-1.60;99.90
37408;DHT22;24866;50.248;8.252;2023-02-26T04:54:46;-1.60;99.90
37408;DHT22;24866;50.248;8.252;2023-02-26T04:57:16;-1.50;99.90
37408;DHT22;24866;50.248;8.252;2023-02-26T04:59:47;-1.60;99.90
37408;DHT22;24866;50.248;8.252;2023-02-26T05:02:18;-1.50;99.90
37408;DHT22;24866;50.248;8.252;2023-02-26T05:04:50;-1.50;99.90
37408;DHT22;24866;50.248;8.252;2023-02-26T05:07:20;-1.50;99.90
37408;DHT22;24866;50.248;8.252;2023-02-26T05:09:50;-1.50;99.90
37408;DHT22;24866;50.248;8.252;2023-02-26T05:12:20;-1.40;99.90
37408;DHT22;24866;50.248;8.252;2023-02-26T05:14:50;-1.50;99.90
37408;DHT22;24866;50.248;8.252;2023-02-26T05:17:21;-1.50;99.90
37408;DHT22;24866;50.248;8.252;2023-02-26T05:19:52;-1.60;99.90
37408;DHT22;24866;50.248;8.252;2023-02-26T05:22:22;-1.60;99.90
37408;DHT22;24866;50.248;8.252;2023-02-26T05:24:52;-1.70;99.90
37408;DHT22;24866;50.248;8.252;2023-02-26T05:27:23;-1.70;99.90
37408;DHT22;24866;50.248;8.252;2023-02-26T05:29:52;-1.60;99.90
37408;DHT22;24866;50.248;8.252;2023-02-26T05:32:22;-1.60;99.90
37408;DHT22;24866;50.248;8.252;2023-02-26T05:34:54;-1.60;99.90
37408;DHT22;24866;50.248;8.252;2023-02-26T05:37:24;-1.60;99.90
37408;DHT22;24866;50.248;8.252;2023-02-26T05:39:54;-1.60;99.90
37408;DHT22;24866;50.248;8.252;2023-02-26T05:42:24;-1.60;99.90
37408;DHT22;24866;50.248;8.252;2023-02-26T05:44:54;-1.60;99.90
37408;DHT22;24866;50.248;8.252;2023-02-26T05:47:25;-1.50;99.90
37408;DHT22;24866;50.248;8.252;2023-02-26T05:49:57;-1.50;99.90
37408;DHT22;24866;50.248;8.252;2023-02-26T05:52:27;-1.50;99.90
37408;DHT22;24866;50.248;8.252;2023-02-26T05:54:57;-1.50;99.90
37408;DHT22;24866;50.248;8.252;2023-02-26T05:57:28;-1.40;99.90
37408;DHT22;24866;50.248;8.252;2023-02-26T06:00:03;-1.50;99.90
37408;DHT22;24866;50.248;8.252;2023-02-26T06:02:34;-1.40;99.90
37408;DHT22;24866;50.248;8.252;2023-02-26T06:05:06;-1.40;99.90
37408;DHT22;24866;50.248;8.252;2023-02-26T06:07:37;-1.50;99.90
37408;DHT22;24866;50.248;8.252;2023-02-26T06:10:09;-1.40;99.90
37408;DHT22;24866;50.248;8.252;2023-02-26T06:12:41;-1.40;99.90
37408;DHT22;24866;50.248;8.252;2023-02-26T06:15:11;-1.30;99.90
37408;DHT22;24866;50.248;8.252;2023-02-26T06:17:41;-1.10;99.90
37408;DHT22;24866;50.248;8.252;2023-02-26T06:20:13;-1.20;99.90
37408;DHT22;24866;50.248;8.252;2023-02-26T06:22:43;-1.20;99.90
37408;DHT22;24866;50.248;8.252;2023-02-26T06:25:13;-1.40;99.90
37408;DHT22;24866;50.248;8.252;2023-02-26T06:27:43;-1.30;99.90
37408;DHT22;24866;50.248;8.252;2023-02-26T06:30:14;-1.30;99.90
37408;DHT22;24866;50.248;8.252;2023-02-26T06:32:47;-1.40;99.90
37408;DHT22;24866;50.248;8.252;2023-02-26T06:35:18;-1.50;99.90
37408;DHT22;24866;50.248;8.252;2023-02-26T06:37:48;-1.60;99.90
37408;DHT22;24866;50.248;8.252;2023-02-26T06:40:18;-1.60;99.90
37408;DHT22;24866;50.248;8.252;2023-02-26T06:42:48;-1.40;99.90
37408;DHT22;24866;50.248;8.252;2023-02-26T06:45:18;-1.40;99.90
37408;DHT22;24866;50.248;8.252;2023-02-26T06:47:48;-1.40;99.90
37408;DHT22;24866;50.248;8.252;2023-02-26T06:50:37;-1.40;99.90
37408;DHT22;24866;50.248;8.252;2023-02-26T06:53:08;-1.40;99.90
37408;DHT22;24866;50.248;8.252;2023-02-26T06:55:44;-1.40;99.90
37408;DHT22;24866;50.248;8.252;2023-02-26T06:58:14;-1.30;99.90
37408;DHT22;24866;50.248;8.252;2023-02-26T07:00:44;-1.30;99.90
37408;DHT22;24866;50.248;8.252;2023-02-26T07:03:19;-1.30;99.90
37408;DHT22;24866;50.248;8.252;2023-02-26T07:05:54;-1.30;99.90
37408;DHT22;24866;50.248;8.252;2023-02-26T07:08:24;-1.40;99.90
37408;DHT22;24866;50.248;8.252;2023-02-26T07:10:55;-1.40;99.90
37408;DHT22;24866;50.248;8.252;2023-02-26T07:13:25;-1.40;99.90
37408;DHT22;24866;50.248;8.252;2023-02-26T07:15:56;-1.50;99.90
37408;DHT22;24866;50.248;8.252;2023-02-26T07:18:35;-1.40;99.90
37408;DHT22;24866;50.248;8.252;2023-02-26T07:21:07;-1.50;99.90
37408;DHT22;24866;50.248;8.252;2023-02-26T07:23:37;-1.50;99.90
37408;DHT22;24866;50.248;8.252;2023-02-26T07:26:06;-1.50;99.90
37408;DHT22;24866;50.248;8.252;2023-02-26T07:28:37;-1.40;99.90
37408;DHT22;24866;50.248;8.252;2023-02-26T07:31:07;-1.40;99.90
37408;DHT22;24866;50.248;8.252;2023-02-26T07:33:38;-1.40;99.90
37408;DHT22;24866;50.248;8.252;2023-02-26T07:36:10;-1.40;99.90
37408;DHT22;24866;50.248;8.252;2023-02-26T07:38:40;-1.40;99.90
37408;DHT22;24866;50.248;8.252;2023-02-26T07:41:10;-1.30;99.90
37408;DHT22;24866;50.248;8.252;2023-02-26T07:43:41;-1.30;99.90
37408;DHT22;24866;50.248;8.252;2023-02-26T07:46:11;-1.20;99.90
37408;DHT22;24866;50.248;8.252;2023-02-26T07:48:41;-1.10;99.90
37408;DHT22;24866;50.248;8.252;2023-02-26T07:51:13;-1.00;99.90
37408;DHT22;24866;50.248;8.252;2023-02-26T07:53:43;-1.10;99.90
37408;DHT22;24866;50.248;8.252;2023-02-26T07:56:13;-1.00;99.90
37408;DHT22;24866;50.248;8.252;2023-02-26T07:58:43;-0.90;99.90
37408;DHT22;24866;50.248;8.252;2023-02-26T08:01:13;-0.80;99.90
37408;DHT22;24866;50.248;8.252;2023-02-26T08:03:43;-0.60;99.90
37408;DHT22;24866;50.248;8.252;2023-02-26T08:06:15;-0.60;99.90
37408;DHT22;24866;50.248;8.252;2023-02-26T08:08:45;-0.70;99.90
37408;DHT22;24866;50.248;8.252;2023-02-26T08:11:15;-0.70;99.90
37408;DHT22;24866;50.248;8.252;2023-02-26T08:13:45;-0.50;99.90
37408;DHT22;24866;50.248;8.252;2023-02-26T08:16:15;-0.40;99.90
37408;DHT22;24866;50.248;8.252;2023-02-26T08:18:45;-0.40;99.90
37408;DHT22;24866;50.248;8.252;2023-02-26T08:21:17;-0.30;99.90
37408;DHT22;24866;50.248;8.252;2023-02-26T08:23:47;-0.40;99.90
37408;DHT22;24866;50.248;8.252;2023-02-26T08:26:17;-0.40;99.90
37408;DHT22;24866;50.248;8.252;2023-02-26T08:28:47;-0.40;99.90
37408;DHT22;24866;50.248;8.252;2023-02-26T08:31:17;-0.40;99.90
37408;DHT22;24866;50.248;8.252;2023-02-26T08:33:48;-0.40;1.00
37408;DHT22;24866;50.248;8.252;2023-02-26T08:36:19;-0.30;99.90
37408;DHT22;24866;50.248;8.252;2023-02-26T08:38:50;-0.30;99.90
37408;DHT22;24866;50.248;8.252;2023-02-26T08:41:20;-0.30;99.90
37408;DHT22;24866;50.248;8.252;2023-02-26T08:43:50;-0.30;18.10
37408;DHT22;24866;50.248;8.252;2023-02-26T08:46:20;0.10;99.90
37408;DHT22;24866;50.248;8.252;2023-02-26T08:48:50;0.50;1.00
37408;DHT22;24866;50.248;8.252;2023-02-26T08:51:22;0.40;99.90
37408;DHT22;24866;50.248;8.252;2023-02-26T08:53:52;0.50;99.90
37408;DHT22;24866;50.248;8.252;2023-02-26T08:56:22;0.50;99.90
37408;DHT22;24866;50.248;8.252;2023-02-26T08:58:52;0.30;1.00
37408;DHT22;24866;50.248;8.252;2023-02-26T09:01:22;0.40;1.00
37408;DHT22;24866;50.248;8.252;2023-02-26T09:03:52;0.50;1.00
37408;DHT22;24866;50.248;8.252;2023-02-26T09:06:23;0.60;1.00
37408;DHT22;24866;50.248;8.252;2023-02-26T09:08:53;0.50;1.00
37408;DHT22;24866;50.248;8.252;2023-02-26T09:11:23;0.40;1.00
37408;DHT22;24866;50.248;8.252;2023-02-26T09:13:54;0.70;1.00
37408;DHT22;24866;50.248;8.252;2023-02-26T09:16:24;1.00;1.00
37408;DHT22;24866;50.248;8.252;2023-02-26T09:18:54;1.10;20.40
37408;DHT22;24866;50.248;8.252;2023-02-26T09:21:26;1.10;1.00
37408;DHT22;24866;50.248;8.252;2023-02-26T09:23:56;0.80;1.00
37408;DHT22;24866;50.248;8.252;2023-02-26T09:26:27;0.90;1.00
37408;DHT22;24866;50.248;8.252;2023-02-26T09:28:57;1.10;1.00
37408;DHT22;24866;50.248;8.252;2023-02-26T09:31:27;1.20;1.00
37408;DHT22;24866;50.248;8.252;2023-02-26T09:33:58;1.30;1.00
37408;DHT22;24866;50.248;8.252;2023-02-26T09:36:29;0.60;1.00
37408;DHT22;24866;50.248;8.252;2023-02-26T09:38:59;0.60;1.00
37408;DHT22;24866;50.248;8.252;2023-02-26T09:41:31;0.70;1.00
37408;DHT22;24866;50.248;8.252;2023-02-26T09:44:14;0.60;1.00
37408;DHT22;24866;50.248;8.252;2023-02-26T09:46:53;0.70;1.00
37408;DHT22;24866;50.248;8.252;2023-02-26T09:49:35;0.80;1.00
37408;DHT22;24866;50.248;8.252;2023-02-26T09:52:19;0.80;1.00
37408;DHT22;24866;50.248;8.252;2023-02-26T09:54:53;0.90;1.00
37408;DHT22;24866;50.248;8.252;2023-02-26T09:57:30;1.00;1.00
37408;DHT22;24866;50.248;8.252;2023-02-26T10:00:02;1.00;1.00
37408;DHT22;24866;50.248;8.252;2023-02-26T10:02:35;1.20;1.00
37408;DHT22;24866;50.248;8.252;2023-02-26T10:05:18;1.20;1.00
37408;DHT22;24866;50.248;8.252;2023-02-26T10:07:55;1.30;1.00
37408;DHT22;24866;50.248;8.252;2023-02-26T10:10:32;1.30;1.00
37408;DHT22;24866;50.248;8.252;2023-02-26T10:13:04;1.40;1.00
37408;DHT22;24866;50.248;8.252;2023-02-26T10:15:38;1.20;1.00
37408;DHT22;24866;50.248;8.252;2023-02-26T10:18:11;1.20;1.00
37408;DHT22;24866;50.248;8.252;2023-02-26T10:20:52;1.20;1.00
37408;DHT22;24866;50.248;8.252;2023-02-26T10:23:29;1.10;99.90
37408;DHT22;24866;50.248;8.252;2023-02-26T10:26:06;1.10;99.90
37408;DHT22;24866;50.248;8.252;2023-02-26T10:28:51;1.00;99.90
37408;DHT22;24866;50.248;8.252;2023-02-26T10:31:28;1.00;99.90
37408;DHT22;24866;50.248;8.252;2023-02-26T10:34:10;1.10;99.90
37408;DHT22;24866;50.248;8.252;2023-02-26T10:36:47;1.20;99.90
37408;DHT22;24866;50.248;8.252;2023-02-26T10:39:27;1.30;99.90
37408;DHT22;24866;50.248;8.252;2023-02-26T10:42:02;1.40;99.90
37408;DHT22;24866;50.248;8.252;2023-02-26T10:44:39;1.40;99.90
37408;DHT22;24866;50.248;8.252;2023-02-26T10:47:17;1.50;99.90
37408;DHT22;24866;50.248;8.252;2023-02-26T10:49:54;1.50;99.90
37408;DHT22;24866;50.248;8.252;2023-02-26T10:52:27;1.50;99.90
37408;DHT22;24866;50.248;8.252;2023-02-26T10:55:22;1.30;46.10
37408;DHT22;24866;50.248;8.252;2023-02-26T10:57:58;1.20;1.00
37408;DHT22;24866;50.248;8.252;2023-02-26T11:00:32;1.10;1.00
37408;DHT22;24866;50.248;8.252;2023-02-26T11:03:06;1.10;1.00
37408;DHT22;24866;50.248;8.252;2023-02-26T11:05:38;1.00;1.00
37408;DHT22;24866;50.248;8.252;2023-02-26T11:08:12;0.90;1.00
37408;DHT22;24866;50.248;8.252;2023-02-26T11:10:49;1.00;1.00
37408;DHT22;24866;50.248;8.252;2023-02-26T11:13:21;1.60;1.00
37408;DHT22;24866;50.248;8.252;2023-02-26T11:15:52;1.90;23.40
37408;DHT22;24866;50.248;8.252;2023-02-26T11:18:27;2.00;27.00
37408;DHT22;24866;50.248;8.252;2023-02-26T11:20:59;2.10;70.20
37408;DHT22;24866;50.248;8.252;2023-02-26T11:23:30;2.30;99.90
37408;DHT22;24866;50.248;8.252;2023-02-26T11:26:08;2.30;99.90
37408;DHT22;24866;50.248;8.252;2023-02-26T11:28:46;2.50;99.90
37408;DHT22;24866;50.248;8.252;2023-02-26T11:31:18;2.50;99.90
37408;DHT22;24866;50.248;8.252;2023-02-26T11:33:50;2.60;99.90
37408;DHT22;24866;50.248;8.252;2023-02-26T11:36:25;2.80;99.90
37408;DHT22;24866;50.248;8.252;2023-02-26T11:39:00;2.90;99.90
37408;DHT22;24866;50.248;8.252;2023-02-26T11:41:35;2.50;1.00
37408;DHT22;24866;50.248;8.252;2023-02-26T11:44:10;2.30;1.00
37408;DHT22;24866;50.248;8.252;2023-02-26T11:46:44;2.10;1.00
37408;DHT22;24866;50.248;8.252;2023-02-26T11:49:17;1.90;1.00
37408;DHT22;24866;50.248;8.252;2023-02-26T11:52:02;1.90;1.00
37408;DHT22;24866;50.248;8.252;2023-02-26T11:54:34;2.00;1.00
37408;DHT22;24866;50.248;8.252;2023-02-26T11:57:15;2.10;1.00
37408;DHT22;24866;50.248;8.252;2023-02-26T11:59:48;2.00;1.00
37408;DHT22;24866;50.248;8.252;2023-02-26T12:02:21;2.00;1.00
37408;DHT22;24866;50.248;8.252;2023-02-26T12:04:54;2.00;99.90
37408;DHT22;24866;50.248;8.252;2023-02-26T12:07:25;2.00;99.90
37408;DHT22;24866;50.248;8.252;2023-02-26T12:09:55;1.90;99.90
37408;DHT22;24866;50.248;8.252;2023-02-26T12:12:44;1.90;99.90
37408;DHT22;24866;50.248;8.252;2023-02-26T12:15:27;1.80;99.90
37408;DHT22;24866;50.248;8.252;2023-02-26T12:18:09;1.90;99.90
37408;DHT22;24866;50.248;8.252;2023-02-26T12:20:50;2.00;99.90
37408;DHT22;24866;50.248;8.252;2023-02-26T12:23:44;2.10;99.90
37408;DHT22;24866;50.248;8.252;2023-02-26T12:26:23;2.20;99.90
37408;DHT22;24866;50.248;8.252;2023-02-26T12:29:06;2.30;99.90
37408;DHT22;24866;50.248;8.252;2023-02-26T12:32:09;2.40;99.90
37408;DHT22;24866;50.248;8.252;2023-02-26T12:35:06;2.30;99.90
37408;DHT22;24866;50.248;8.252;2023-02-26T12:37:49;2.20;99.90
37408;DHT22;24866;50.248;8.252;2023-02-26T12:40:48;2.30;99.90
37408;DHT22;24866;50.248;8.252;2023-02-26T12:43:27;2.40;99.90
37408;DHT22;24866;50.248;8.252;2023-02-26T12:46:08;2.40;99.90
37408;DHT22;24866;50.248;8.252;2023-02-26T12:49:02;2.30;65.20
37408;DHT22;24866;50.248;8.252;2023-02-26T12:51:49;1.90;1.00
37408;DHT22;24866;50.248;8.252;2023-02-26T12:54:46;1.90;1.00
37408;DHT22;24866;50.248;8.252;2023-02-26T12:57:51;1.90;1.00
37408;DHT22;24866;50.248;8.252;2023-02-26T13:00:46;1.90;1.00
37408;DHT22;24866;50.248;8.252;2023-02-26T13:03:42;2.00;1.00
37408;DHT22;24866;50.248;8.252;2023-02-26T13:06:43;2.00;1.00
37408;DHT22;24866;50.248;8.252;2023-02-26T13:09:29;2.00;1.00
37408;DHT22;24866;50.248;8.252;2023-02-26T13:12:11;2.10;1.00
37408;DHT22;24866;50.248;8.252;2023-02-26T13:14:49;2.20;1.00
37408;DHT22;24866;50.248;8.252;2023-02-26T13:17:27;2.00;1.00
37408;DHT22;24866;50.248;8.252;2023-02-26T13:20:09;2.00;1.00
37408;DHT22;24866;50.248;8.252;2023-02-26T13:22:43;2.00;1.00
37408;DHT22;24866;50.248;8.252;2023-02-26T13:25:18;2.10;1.00
37408;DHT22;24866;50.248;8.252;2023-02-26T13:27:51;2.30;1.00
37408;DHT22;24866;50.248;8.252;2023-02-26T13:30:26;2.20;1.00
37408;DHT22;24866;50.248;8.252;2023-02-26T13:32:58;2.30;1.00
37408;DHT22;24866;50.248;8.252;2023-02-26T13:35:33;2.40;1.00
37408;DHT22;24866;50.248;8.252;2023-02-26T13:38:14;2.30;1.00
37408;DHT22;24866;50.248;8.252;2023-02-26T13:40:53;2.20;1.00
37408;DHT22;24866;50.248;8.252;2023-02-26T13:43:37;2.10;1.00
37408;DHT22;24866;50.248;8.252;2023-02-26T13:46:22;2.00;1.00
37408;DHT22;24866;50.248;8.252;2023-02-26T13:49:00;2.00;99.90
37408;DHT22;24866;50.248;8.252;2023-02-26T13:51:36;2.00;99.90
37408;DHT22;24866;50.248;8.252;2023-02-26T13:54:26;2.10;99.90
37408;DHT22;24866;50.248;8.252;2023-02-26T13:57:32;2.00;99.90
37408;DHT22;24866;50.248;8.252;2023-02-26T14:00:14;2.10;99.90
37408;DHT22;24866;50.248;8.252;2023-02-26T14:02:53;2.30;99.90
37408;DHT22;24866;50.248;8.252;2023-02-26T14:05:34;2.30;99.90
37408;DHT22;24866;50.248;8.252;2023-02-26T14:14:15;2.50;99.90
37408;DHT22;24866;50.248;8.252;2023-02-26T14:16:49;3.50;1.00
37408;DHT22;24866;50.248;8.252;2023-02-26T14:19:27;3.60;1.00
37408;DHT22;24866;50.248;8.252;2023-02-26T14:22:12;3.30;1.00
37408;DHT22;24866;50.248;8.252;2023-02-26T14:24:44;3.50;1.00
37408;DHT22;24866;50.248;8.252;2023-02-26T14:27:32;3.50;1.00
37408;DHT22;24866;50.248;8.252;2023-02-26T14:30:16;3.50;1.00
37408;DHT22;24866;50.248;8.252;2023-02-26T14:32:49;3.20;1.00
37408;DHT22;24866;50.248;8.252;2023-02-26T14:35:24;3.00;99.90
37408;DHT22;24866;50.248;8.252;2023-02-26T14:37:58;2.80;99.90
37408;DHT22;24866;50.248;8.252;2023-02-26T14:40:35;2.80;99.90
37408;DHT22;24866;50.248;8.252;2023-02-26T14:43:12;2.70;99.90
37408;DHT22;24866;50.248;8.252;2023-02-26T14:45:47;2.70;99.90
37408;DHT22;24866;50.248;8.252;2023-02-26T14:48:21;2.60;99.90
37408;DHT22;24866;50.248;8.252;2023-02-26T14:51:09;2.60;99.90
37408;DHT22;24866;50.248;8.252;2023-02-26T14:56:51;2.70;99.90
37408;DHT22;24866;50.248;8.252;2023-02-26T14:59:47;2.70;99.90
37408;DHT22;24866;50.248;8.252;2023-02-26T15:02:26;2.60;99.90
37408;DHT22;24866;50.248;8.252;2023-02-26T15:05:28;2.50;99.90
37408;DHT22;24866;50.248;8.252;2023-02-26T15:08:31;2.50;99.90
37408;DHT22;24866;50.248;8.252;2023-02-26T15:14:26;2.40;60.60
37408;DHT22;24866;50.248;8.252;2023-02-26T15:17:08;2.50;60.50
37408;DHT22;24866;50.248;8.252;2023-02-26T15:19:55;2.40;6.20
37408;DHT22;24866;50.248;8.252;2023-02-26T15:22:37;2.30;1.00
37408;DHT22;24866;50.248;8.252;2023-02-26T15:25:15;2.20;1.00
37408;DHT22;24866;50.248;8.252;2023-02-26T15:27:48;2.10;1.00
37408;DHT22;24866;50.248;8.252;2023-02-26T15:30:19;2.10;1.00
37408;DHT22;24866;50.248;8.252;2023-02-26T15:32:55;2.10;1.00
37408;DHT22;24866;50.248;8.252;2023-02-26T15:35:29;2.00;1.00
37408;DHT22;24866;50.248;8.252;2023-02-26T15:38:01;1.90;1.00
37408;DHT22;24866;50.248;8.252;2023-02-26T15:40:32;1.90;1.00
37408;DHT22;24866;50.248;8.252;2023-02-26T15:43:05;1.90;1.00
37408;DHT22;24866;50.248;8.252;2023-02-26T15:45:36;1.80;1.00
37408;DHT22;24866;50.248;8.252;2023-02-26T15:48:10;1.90;1.00
37408;DHT22;24866;50.248;8.252;2023-02-26T15:50:44;1.80;1.00
37408;DHT22;24866;50.248;8.252;2023-02-26T15:53:20;1.80;1.00
37408;DHT22;24866;50.248;8.252;2023-02-26T15:55:54;1.80;1.00
37408;DHT22;24866;50.248;8.252;2023-02-26T15:58:33;1.80;1.00
37408;DHT22;24866;50.248;8.252;2023-02-26T16:01:05;1.80;1.00
37408;DHT22;24866;50.248;8.252;2023-02-26T16:03:37;1.70;1.00
37408;DHT22;24866;50.248;8.252;2023-02-26T16:06:12;1.60;1.00
37408;DHT22;24866;50.248;8.252;2023-02-26T16:08:42;1.50;1.00
37408;DHT22;24866;50.248;8.252;2023-02-26T16:11:13;1.50;1.00
37408;DHT22;24866;50.248;8.252;2023-02-26T16:13:45;1.50;1.00
37408;DHT22;24866;50.248;8.252;2023-02-26T16:16:22;1.40;1.00
37408;DHT22;24866;50.248;8.252;2023-02-26T16:18:54;1.30;1.00
37408;DHT22;24866;50.248;8.252;2023-02-26T16:21:31;1.40;1.00
37408;DHT22;24866;50.248;8.252;2023-02-26T16:24:05;1.40;1.00
37408;DHT22;24866;50.248;8.252;2023-02-26T16:26:40;1.50;1.00
37408;DHT22;24866;50.248;8.252;2023-02-26T16:29:12;1.50;99.90
37408;DHT22;24866;50.248;8.252;2023-02-26T16:31:48;1.50;99.90
37408;DHT22;24866;50.248;8.252;2023-02-26T16:34:29;1.40;99.90
37408;DHT22;24866;50.248;8.252;2023-02-26T16:40:15;1.50;99.90
37408;DHT22;24866;50.248;8.252;2023-02-26T16:42:53;1.50;99.90
37408;DHT22;24866;50.248;8.252;2023-02-26T16:45:41;1.40;99.90
37408;DHT22;24866;50.248;8.252;2023-02-26T16:48:20;1.40;99.90
37408;DHT22;24866;50.248;8.252;2023-02-26T16:50:56;1.40;99.90